Ana Sayfa
METAR-TAF:

METAR-TAF

Havaalanları :

Guiyang, Çin

Enlem: 26-32-19N, Boylam: 106-48-03E, yükseklik: 1139 m

Güncel hava durumu gözlemi

Rapor saat 21:00 UTC de 44 dakika önce yapıldı.
Rüzgar güney/güneybatıdan 4 kt
Sıcaklık 21°C
Nem 88%
Basınç 1012 hPa
Görüş mesafesi 10 km veya daha fazla
3000 ft yükseklikte az bulutlu

METAR: ZUGY 212100Z 20002MPS 9999 FEW030 21/19 Q1012 NOSIG

Saat: 05:44 (21:44 UTC)

Tahmin

Rapor saat 15:02 UTC de 6 saat ve 42 dakika önce yapıldı.
Ayın 21'si saat 18 UTC'den ayın 22'si saat 18 UTC'ye kadar geçerli Tahmin
Rüzgar güneydan 14 kt
Görüş mesafesi: 6000 m
3300 ft yükseklikte parçalı çok bulutlu

TAF: ZUGY 211502Z 2118/2218 19007MPS 6000 BKN033 TX34/2207Z TN23/2122Z

4.000'den fazla havaalanı için hava durumu gözlemleri ve tahminleri (METAR ve TAF raporları).

Kullanılabilir istasyonlar harita üzerinde sarı ve kırmızı noktalarla gösterilir.

İstasyonun adını görmek için fareyi noktanın üzerinde gezdirin.

Sonrasında hava gözlem ve tahminlerini görmek için tıklayın.

Haritayı değiştirmek için: yaklaştırmak için siyah artı işaretli yeşil düğmeye ve uzaklaştırmak için de eksi işaretli düğmeye hızla tıklayın; bitişik haritalar için yeşil okları kullanın.


METAR-TAF: